Koz'Modem'Jansk, Russia
Current Conditions -  °F | °C
As of 10:30 PM on Sunday 21 Dec 2014 (Local Time) from UWKS Reporting Station
Broken Clouds Broken Clouds  
Wind Chill: 21°   Ceiling: 2000
Heat Index: 32°   Visibility: 6mi
Dew Point: 28°   Wind: 16mph
Humidity: 87%   Direction: 220°SW
Pressure: 29.59"   Gusts: NA
Location:  56.33°N, 46.58°E
Report Text: UWKS 211930Z 22007MPS 9999 BKN020CB BKN066 00/M02 Q1002 NOSIGRMK QFE738 24620350
Loading
Personal Weather Stations






























Interactive Weather Map New forecast layout! Learn more

10-Day Weather Forecast

Advertisements
Track Severe Weather on mobile